Time;durP1;ratioP1;P1;durP2;ratioP2;P2;SDS_P1;SDS_P2;PMS_P1;PMS_P2;Temp;Humidity;BMP_temperature;BMP_pressure;BME280_temperature;BME280_humidity;BME280_pressure;Samples;Min_cycle;Max_cycle;Signal;HPM_P1;HPM_P2
2023/05/31 00:05:38;;;;;;;9.07;2.92;;;;;;;12.15;50.73;100898.16;30871735;28;96730;-67
2023/05/31 00:20:38;;;;;;;7.88;2.65;;;;;;;12.05;50.98;100903.66;30870487;28;97655;-67
2023/05/31 00:35:39;;;;;;;8.15;3.17;;;;;;;11.93;52.00;100899.56;30868809;28;109858;-67
2023/05/31 00:50:40;;;;;;;7.63;3.60;;;;;;;11.78;52.38;100894.88;30865652;28;96736;-67
2023/05/31 01:05:41;;;;;;;5.63;2.80;;;;;;;11.66;52.58;100894.31;30864486;28;97620;-67
2023/05/31 01:20:43;;;;;;;10.23;3.30;;;;;;;11.50;52.75;100900.38;30863083;28;97237;-66
2023/05/31 01:35:44;;;;;;;4.73;2.93;;;;;;;11.43;53.19;100895.88;30861214;28;96793;-68
2023/05/31 01:50:45;;;;;;;6.40;3.13;;;;;;;11.38;53.82;100899.00;30860753;28;96711;-68
2023/05/31 02:05:59;;;;;;;11.37;3.23;;;;;;;11.21;53.80;100915.88;30859671;28;97465;-68
2023/05/31 02:20:59;;;;;;;4.80;2.63;;;;;;;11.03;54.07;100914.13;30858201;28;97331;-68
2023/05/31 02:36:00;;;;;;;9.40;3.40;;;;;;;10.90;55.23;100935.84;30857307;28;96687;-68
2023/05/31 02:51:00;;;;;;;4.60;2.85;;;;;;;10.81;55.87;100932.28;30856396;28;96625;-68
2023/05/31 03:06:01;;;;;;;8.65;3.28;;;;;;;10.78;55.67;100932.56;30853547;28;108601;-68
2023/05/31 03:21:02;;;;;;;7.37;3.50;;;;;;;10.90;56.50;100938.50;30853220;28;97271;-66
2023/05/31 03:36:04;;;;;;;13.70;4.23;;;;;;;11.07;56.48;100936.81;30852819;28;96731;-69
2023/05/31 03:51:05;;;;;;;8.60;3.47;;;;;;;11.35;56.28;100932.16;30851367;28;96705;-69
2023/05/31 04:06:05;;;;;;;8.88;3.63;;;;;;;11.75;56.33;100945.06;30848425;28;96742;-69
2023/05/31 04:21:07;;;;;;;11.98;4.95;;;;;;;12.15;55.60;100951.56;30859205;28;97553;-69
2023/05/31 04:36:08;;;;;;;11.20;4.60;;;;;;;12.64;55.76;100951.72;30866150;28;96783;-68
2023/05/31 04:51:08;;;;;;;8.40;3.77;;;;;;;13.09;54.96;100964.75;30854249;28;96805;-71
2023/05/31 05:06:14;;;;;;;7.47;3.60;;;;;;;13.63;54.22;100956.19;30834108;28;98161;-67
2023/05/31 05:21:14;;;;;;;6.97;3.70;;;;;;;14.14;53.17;100964.69;30834413;28;97446;-67
2023/05/31 05:36:14;;;;;;;7.03;3.05;;;;;;;14.66;52.00;100957.06;30824692;28;98639;-67
2023/05/31 05:51:16;;;;;;;7.20;4.47;;;;;;;15.25;50.96;100960.94;30854017;28;98513;-66
2023/05/31 06:06:16;;;;;;;9.90;3.50;;;;;;;15.92;50.13;100967.31;30851722;28;97252;-65
2023/05/31 06:21:17;;;;;;;7.68;3.00;;;;;;;16.61;48.86;100963.34;30854936;28;97237;-70
2023/05/31 06:36:17;;;;;;;8.52;3.70;;;;;;;17.54;47.21;100958.78;30854742;28;103458;-70
2023/05/31 06:51:19;;;;;;;7.45;3.20;;;;;;;17.98;45.95;100961.34;30792845;28;96970;-66
2023/05/31 07:06:19;;;;;;;5.87;2.53;;;;;;;18.40;44.77;100954.03;30848866;28;97912;-69
2023/05/31 07:21:20;;;;;;;6.93;2.20;;;;;;;18.97;42.88;100956.41;30852411;28;97004;-66
2023/05/31 07:36:20;;;;;;;6.85;2.35;;;;;;;19.68;41.81;100939.47;30852129;28;97383;-65
2023/05/31 07:51:21;;;;;;;6.68;2.30;;;;;;;20.93;39.84;100932.00;30855177;28;96910;-70
2023/05/31 08:06:22;;;;;;;7.33;2.10;;;;;;;22.08;37.90;100918.94;30870718;28;96981;-67
2023/05/31 08:21:22;;;;;;;3.97;1.50;;;;;;;22.73;35.06;100923.66;30868873;28;97039;-63
2023/05/31 08:36:23;;;;;;;4.38;1.42;;;;;;;23.47;33.30;100904.19;30868093;28;96676;-69
2023/05/31 08:51:24;;;;;;;;;;;;;;;24.76;30.09;100908.56;30866610;28;96838;-69
2023/05/31 09:06:25;;;;;;;8.77;1.90;;;;;;;25.29;27.98;100911.81;30865674;28;97549;-67
2023/05/31 09:21:25;;;;;;;4.45;2.08;;;;;;;25.97;27.64;100893.34;30861813;28;97032;-72
2023/05/31 09:36:28;;;;;;;4.38;1.52;;;;;;;26.81;27.25;100879.41;30863529;28;96999;-72
2023/05/31 09:51:30;;;;;;;4.60;1.70;;;;;;;27.21;26.17;100869.78;30851464;28;96710;-71
2023/05/31 10:06:37;;;;;;;3.40;1.43;;;;;;;27.81;25.69;100855.84;30864830;28;96612;-76
2023/05/31 10:21:42;;;;;;;3.03;1.43;;;;;;;28.77;24.38;100852.66;30856918;28;96729;-76
2023/05/31 10:36:43;;;;;;;3.83;1.57;;;;;;;29.31;24.17;100837.47;30857095;28;96702;-68
2023/05/31 10:51:45;;;;;;;7.40;1.73;;;;;;;29.45;22.89;100829.44;30853611;28;96832;-69
2023/05/31 11:06:47;;;;;;;5.87;2.00;;;;;;;30.27;22.10;100815.19;30854763;28;97171;-70
2023/05/31 11:21:50;;;;;;;6.73;1.40;;;;;;;29.80;21.25;100795.47;30853035;28;97982;-71
2023/05/31 11:36:51;;;;;;;3.83;1.57;;;;;;;29.83;20.99;100783.91;30873717;28;97630;-68
2023/05/31 11:51:55;;;;;;;4.03;1.60;;;;;;;29.18;20.84;100778.50;30864022;28;98051;-74
2023/05/31 12:06:55;;;;;;;2.93;1.33;;;;;;;29.26;20.91;100763.41;30763800;28;97041;-71
2023/05/31 12:21:55;;;;;;;8.48;2.15;;;;;;;29.41;21.37;100748.78;30745468;28;97934;-66
2023/05/31 12:36:56;;;;;;;5.00;1.90;;;;;;;28.91;22.21;100730.34;30745442;28;96787;-66
2023/05/31 12:52:03;;;;;;;4.53;1.52;;;;;;;28.91;21.80;100719.38;30745095;28;96779;-72
2023/05/31 13:07:03;;;;;;;3.43;1.60;;;;;;;28.91;21.15;100713.91;30742135;28;96710;-67
2023/05/31 13:22:04;;;;;;;4.57;1.60;;;;;;;28.43;20.49;100692.38;30757468;28;97234;-63
2023/05/31 13:37:05;;;;;;;14.60;1.50;;;;;;;28.24;21.68;100678.44;30751832;28;97383;-69
2023/05/31 13:52:07;;;;;;;6.37;1.90;;;;;;;27.42;21.97;100659.28;30819770;28;97158;-71
2023/05/31 14:07:08;;;;;;;4.30;1.30;;;;;;;27.18;22.65;100648.81;30857476;28;97366;-71
2023/05/31 14:22:08;;;;;;;2.97;1.25;;;;;;;26.80;22.55;100635.31;30854398;28;96784;-71
2023/05/31 14:37:08;;;;;;;3.92;1.60;;;;;;;26.51;23.05;100622.06;30807435;28;103106;-73
2023/05/31 14:52:09;;;;;;;4.97;1.42;;;;;;;26.07;22.86;100607.94;30876890;28;97014;-70
2023/05/31 15:07:09;;;;;;;2.72;1.30;;;;;;;25.76;23.24;100596.75;30962840;28;97210;-71
2023/05/31 15:22:11;;;;;;;3.63;1.50;;;;;;;25.66;22.43;100576.50;30970672;28;97510;-65
2023/05/31 15:37:11;;;;;;;2.92;1.55;;;;;;;25.53;22.74;100573.41;30972233;28;99746;-70
2023/05/31 15:52:11;;;;;;;4.78;1.50;;;;;;;25.37;23.04;100559.66;30972106;28;96753;-70
2023/05/31 16:07:12;;;;;;;3.35;1.40;;;;;;;25.29;23.62;100547.28;30968414;28;97031;-65
2023/05/31 16:22:13;;;;;;;4.95;1.63;;;;;;;25.04;24.49;100523.34;30947271;28;96738;-67
2023/05/31 16:37:14;;;;;;;5.40;1.48;;;;;;;24.43;24.97;100512.63;30783350;28;98163;-66
2023/05/31 16:52:15;;;;;;;5.03;1.73;;;;;;;24.07;25.94;100506.72;30844476;28;96731;-66
2023/05/31 17:07:15;;;;;;;3.35;1.60;;;;;;;23.70;26.79;100502.66;30853186;28;97580;-64
2023/05/31 17:22:15;;;;;;;3.90;1.70;;;;;;;23.25;27.45;100493.59;30853641;28;97602;-65
2023/05/31 17:37:16;;;;;;;3.17;1.25;;;;;;;22.82;28.17;100465.13;30852122;28;97528;-60
2023/05/31 17:52:16;;;;;;;5.70;1.92;;;;;;;22.31;28.97;100460.38;30786343;28;96883;-64
2023/05/31 18:07:17;;;;;;;5.20;1.60;;;;;;;21.79;29.88;100455.78;30848046;28;110265;-65
2023/05/31 18:22:17;;;;;;;3.70;1.48;;;;;;;21.41;31.97;100461.69;30848604;28;97374;-70
2023/05/31 18:37:17;;;;;;;7.00;2.10;;;;;;;20.83;34.71;100453.25;30847569;28;96882;-68
2023/05/31 18:52:18;;;;;;;14.97;2.57;;;;;;;20.25;36.41;100450.06;30843640;28;110265;-67
2023/05/31 19:07:18;;;;;;;10.03;2.23;;;;;;;19.66;38.36;100455.09;30842860;28;97292;-71
2023/05/31 19:22:19;;;;;;;7.53;2.50;;;;;;;19.20;39.69;100454.50;30790448;28;96924;-71
2023/05/31 19:37:19;;;;;;;7.30;2.88;;;;;;;18.67;41.06;100457.56;30820559;28;96835;-67
2023/05/31 19:52:19;;;;;;;10.75;2.53;;;;;;;18.15;42.77;100455.78;30853782;28;97481;-70
2023/05/31 20:07:20;;;;;;;9.50;2.85;;;;;;;17.71;44.13;100449.22;30756692;28;98288;-68
2023/05/31 20:22:20;;;;;;;10.63;3.45;;;;;;;17.28;45.56;100444.31;30781743;28;96789;-68
2023/05/31 20:37:20;;;;;;;13.63;5.03;;;;;;;16.88;46.71;100429.81;30869535;28;96750;-69
2023/05/31 20:52:21;;;;;;;9.27;3.45;;;;;;;16.60;47.70;100427.28;30867590;28;96981;-69
2023/05/31 21:07:21;;;;;;;10.75;4.20;;;;;;;16.32;48.26;100414.81;30865831;28;99511;-71
2023/05/31 21:22:22;;;;;;;5.63;2.72;;;;;;;16.08;49.41;100416.19;30865462;28;96684;-71
2023/05/31 21:37:22;;;;;;;8.48;2.70;;;;;;;15.79;50.28;100412.72;30864057;28;96741;-70
2023/05/31 21:52:30;;;;;;;9.73;5.50;;;;;;;15.45;51.40;100422.44;30862430;28;97006;-67
2023/05/31 22:07:35;;;;;;;6.20;3.50;;;;;;;15.00;52.46;100419.22;30860019;28;96776;-70
2023/05/31 22:22:37;;;;;;;9.53;3.60;;;;;;;14.72;53.43;100426.22;30860095;28;97748;-68
2023/05/31 22:37:37;;;;;;;9.37;3.50;;;;;;;14.53;54.62;100416.09;30858743;28;98410;-69
2023/05/31 22:52:40;;;;;;;10.55;3.78;;;;;;;14.25;55.34;100437.44;30857482;28;97385;-71
2023/05/31 23:07:41;;;;;;;7.17;2.97;;;;;;;14.13;55.92;100429.84;30856177;28;97720;-71
2023/05/31 23:22:43;;;;;;;8.30;3.53;;;;;;;13.94;56.47;100417.06;30855524;28;96734;-71
2023/05/31 23:37:43;;;;;;;8.27;3.43;;;;;;;13.77;56.76;100403.88;30854354;28;97190;-71
2023/05/31 23:52:43;;;;;;;7.45;3.55;;;;;;;13.65;57.14;100386.63;30853034;28;103850;-72
